createdAt,value
2019-05-11T00:00:27.758Z,7.30
2019-05-11T00:02:58.344Z,7.30
2019-05-11T00:05:29.953Z,7.30
2019-05-11T00:08:00.663Z,7.30
2019-05-11T00:10:31.131Z,7.30
2019-05-11T00:13:01.633Z,7.20
2019-05-11T00:15:32.187Z,7.10
2019-05-11T00:18:02.750Z,7.00
2019-05-11T00:20:33.410Z,7.00
2019-05-11T00:23:04.002Z,6.90
2019-05-11T00:25:34.597Z,6.90
2019-05-11T00:28:05.208Z,6.80
2019-05-11T00:30:35.881Z,6.90
2019-05-11T00:33:06.550Z,7.00
2019-05-11T00:35:37.084Z,6.90
2019-05-11T00:38:07.563Z,6.90
2019-05-11T00:40:38.072Z,7.00
2019-05-11T00:43:08.655Z,7.00
2019-05-11T00:45:39.107Z,7.00
2019-05-11T00:48:09.635Z,7.00
2019-05-11T00:50:40.218Z,7.00
2019-05-11T00:53:12.020Z,7.00
2019-05-11T00:55:42.535Z,7.10
2019-05-11T00:58:13.151Z,7.10
2019-05-11T01:00:43.854Z,7.20
2019-05-11T01:03:14.399Z,7.30
2019-05-11T01:05:46.112Z,7.30
2019-05-11T01:08:16.741Z,7.30
2019-05-11T01:10:47.292Z,7.40
2019-05-11T01:13:17.806Z,7.40
2019-05-11T01:15:48.313Z,7.40
2019-05-11T01:18:18.776Z,7.50
2019-05-11T01:20:49.294Z,7.40
2019-05-11T01:23:19.867Z,7.40
2019-05-11T01:25:50.531Z,7.30
2019-05-11T01:28:21.058Z,7.20
2019-05-11T01:30:51.683Z,7.10
2019-05-11T01:33:22.176Z,7.10
2019-05-11T01:35:52.655Z,7.10
2019-05-11T01:38:23.188Z,7.10
2019-05-11T01:40:58.561Z,7.10
2019-05-11T01:43:25.766Z,7.00
2019-05-11T01:45:56.386Z,7.10
2019-05-11T01:48:26.865Z,7.10
2019-05-11T01:50:57.376Z,7.10
2019-05-11T01:53:27.989Z,7.20
2019-05-11T01:55:58.489Z,7.30
2019-05-11T01:58:29.024Z,7.30
2019-05-11T02:00:59.578Z,7.30
2019-05-11T02:03:30.049Z,7.30
2019-05-11T02:06:00.616Z,7.40
2019-05-11T02:08:31.139Z,7.40
2019-05-11T02:11:14.965Z,7.40
2019-05-11T02:13:34.152Z,7.40
2019-05-11T02:16:04.660Z,7.40
2019-05-11T02:18:35.540Z,7.40
2019-05-11T02:21:06.139Z,7.40
2019-05-11T02:23:36.678Z,7.40
2019-05-11T02:26:07.211Z,7.40
2019-05-11T02:28:37.721Z,7.50
2019-05-11T02:31:08.373Z,7.50
2019-05-11T02:33:38.809Z,7.50
2019-05-11T02:36:09.291Z,7.50
2019-05-11T02:38:39.892Z,7.50
2019-05-11T02:41:10.412Z,7.40
2019-05-11T02:43:41.310Z,7.30
2019-05-11T02:46:11.814Z,7.30
2019-05-11T02:48:42.327Z,7.30
2019-05-11T02:51:13.320Z,7.20
2019-05-11T02:53:44.823Z,7.20
2019-05-11T02:56:15.319Z,7.10
2019-05-11T02:58:45.905Z,7.10
2019-05-11T03:01:16.795Z,7.10
2019-05-11T03:03:47.321Z,7.10
2019-05-11T03:06:17.839Z,7.00
2019-05-11T03:08:48.343Z,6.90
2019-05-11T03:11:19.458Z,6.90
2019-05-11T03:13:50.058Z,6.90
2019-05-11T03:16:20.703Z,6.80
2019-05-11T03:18:51.166Z,6.80
2019-05-11T03:21:21.793Z,6.70
2019-05-11T03:23:52.388Z,6.70
2019-05-11T03:26:22.881Z,6.70
2019-05-11T03:28:53.427Z,6.60
2019-05-11T03:31:23.990Z,6.60
2019-05-11T03:33:54.506Z,6.70
2019-05-11T03:36:25.056Z,6.60
2019-05-11T03:38:55.648Z,6.60
2019-05-11T03:41:26.153Z,6.60
2019-05-11T03:43:56.814Z,6.60
2019-05-11T03:46:27.366Z,6.60
2019-05-11T03:48:57.821Z,6.50
2019-05-11T03:51:28.339Z,6.50
2019-05-11T03:53:58.812Z,6.40
2019-05-11T03:56:29.441Z,6.40
2019-05-11T03:58:59.988Z,6.40
2019-05-11T04:01:30.488Z,6.40
2019-05-11T04:04:00.992Z,6.40
2019-05-11T04:06:31.711Z,6.40
2019-05-11T04:09:02.260Z,6.40
2019-05-11T04:11:33.960Z,6.40
2019-05-11T04:14:04.434Z,6.30
2019-05-11T04:16:34.916Z,6.30
2019-05-11T04:19:05.435Z,6.30
2019-05-11T04:21:36.044Z,6.20
2019-05-11T04:24:06.578Z,6.20
2019-05-11T04:26:37.051Z,6.10
2019-05-11T04:29:07.483Z,6.10
2019-05-11T04:31:38.157Z,6.20
2019-05-11T04:34:08.686Z,6.10
2019-05-11T04:36:39.135Z,6.10
2019-05-11T04:39:09.634Z,6.00
2019-05-11T04:41:40.158Z,6.00
2019-05-11T04:44:10.747Z,6.00
2019-05-11T04:46:41.458Z,6.10
2019-05-11T04:49:11.902Z,6.00
2019-05-11T04:51:42.393Z,6.00
2019-05-11T04:54:12.908Z,5.90
2019-05-11T04:56:43.438Z,5.90
2019-05-11T04:59:13.882Z,5.90
2019-05-11T05:01:44.371Z,5.80
2019-05-11T05:04:14.885Z,5.80
2019-05-11T05:06:58.879Z,5.90
2019-05-11T05:09:18.830Z,5.90
2019-05-11T05:11:49.354Z,5.90
2019-05-11T05:14:19.834Z,6.00
2019-05-11T05:16:50.442Z,6.00
2019-05-11T05:19:20.945Z,6.10
2019-05-11T05:21:51.488Z,6.20
2019-05-11T05:24:22.032Z,6.30
2019-05-11T05:26:52.568Z,6.40
2019-05-11T05:29:23.094Z,6.40
2019-05-11T05:31:54.816Z,6.40
2019-05-11T05:34:25.440Z,6.50
2019-05-11T05:36:55.924Z,6.50
2019-05-11T05:39:26.523Z,6.50
2019-05-11T05:41:57.732Z,6.60
2019-05-11T05:44:28.553Z,6.60
2019-05-11T05:46:59.069Z,6.70
2019-05-11T05:49:29.548Z,6.70
2019-05-11T05:52:00.157Z,6.80
2019-05-11T05:54:30.712Z,6.90
2019-05-11T05:57:01.261Z,7.00
2019-05-11T05:59:31.972Z,7.10
2019-05-11T06:02:02.447Z,7.20
2019-05-11T06:04:33.082Z,7.20
2019-05-11T06:07:03.592Z,7.30
2019-05-11T06:09:34.101Z,7.30
2019-05-11T06:12:04.630Z,7.30
2019-05-11T06:14:35.127Z,7.30
2019-05-11T06:17:17.865Z,7.30
2019-05-11T06:19:49.456Z,7.40
2019-05-11T06:22:19.961Z,7.50
2019-05-11T06:24:50.529Z,7.40
2019-05-11T06:27:21.022Z,7.50
2019-05-11T06:29:51.494Z,7.60
2019-05-11T06:32:22.120Z,7.60
2019-05-11T06:34:52.668Z,7.70
2019-05-11T06:37:23.236Z,7.70
2019-05-11T06:39:53.720Z,7.70
2019-05-11T06:42:24.231Z,7.80
2019-05-11T06:44:54.742Z,7.90
2019-05-11T06:47:25.194Z,7.90
2019-05-11T06:49:56.878Z,7.90
2019-05-11T06:52:27.916Z,7.90
2019-05-11T06:54:58.427Z,7.90
2019-05-11T06:57:28.917Z,8.00
2019-05-11T06:59:59.572Z,8.10
2019-05-11T07:02:30.144Z,8.20
2019-05-11T07:05:00.649Z,8.40
2019-05-11T07:07:46.095Z,8.50
2019-05-11T07:10:05.227Z,8.90
2019-05-11T07:12:35.754Z,9.00
2019-05-11T07:15:06.767Z,9.10
2019-05-11T07:17:37.314Z,9.10
2019-05-11T07:20:08.555Z,9.10
2019-05-11T07:22:39.136Z,9.20
2019-05-11T07:25:09.741Z,9.20
2019-05-11T07:27:40.555Z,9.30
2019-05-11T07:30:11.127Z,9.40
2019-05-11T07:32:41.848Z,9.50
2019-05-11T07:35:12.460Z,9.50
2019-05-11T07:37:43.083Z,9.60
2019-05-11T07:40:13.967Z,9.80
2019-05-11T07:42:44.549Z,9.90
2019-05-11T07:45:15.218Z,9.90
2019-05-11T07:47:48.338Z,10.10
2019-05-11T07:50:18.370Z,10.10
2019-05-11T07:52:49.022Z,10.20
2019-05-11T07:55:19.577Z,10.40
2019-05-11T07:57:50.217Z,10.50
2019-05-11T08:00:20.882Z,10.50
2019-05-11T08:02:51.489Z,10.50
2019-05-11T08:05:21.979Z,10.50
2019-05-11T08:07:52.447Z,10.50
2019-05-11T08:10:22.935Z,10.60
2019-05-11T08:12:53.429Z,10.70
2019-05-11T08:15:23.975Z,10.60
2019-05-11T08:17:54.420Z,10.60
2019-05-11T08:20:24.925Z,10.60
2019-05-11T08:22:55.568Z,10.60
2019-05-11T08:25:28.494Z,10.60
2019-05-11T08:27:58.796Z,10.60
2019-05-11T08:30:29.444Z,10.60
2019-05-11T08:32:59.954Z,10.50
2019-05-11T08:35:31.279Z,10.50
2019-05-11T08:38:02.108Z,10.70
2019-05-11T08:40:32.629Z,10.90
2019-05-11T08:43:03.549Z,11.20
2019-05-11T08:45:34.033Z,11.40
2019-05-11T08:48:04.535Z,11.70
2019-05-11T08:50:35.040Z,11.90
2019-05-11T08:53:05.823Z,12.00
2019-05-11T08:55:38.138Z,12.10
2019-05-11T08:58:08.680Z,12.30
2019-05-11T09:00:39.406Z,12.40
2019-05-11T09:03:09.925Z,12.40
2019-05-11T09:05:40.534Z,12.40
2019-05-11T09:08:11.106Z,12.30
2019-05-11T09:10:41.596Z,12.20
2019-05-11T09:13:12.122Z,12.40
2019-05-11T09:15:42.607Z,12.80
2019-05-11T09:18:13.200Z,13.40
2019-05-11T09:20:43.799Z,13.90
2019-05-11T09:23:29.874Z,14.20
2019-05-11T09:25:47.688Z,14.30
2019-05-11T09:28:18.398Z,14.50
2019-05-11T09:30:48.917Z,14.80
2019-05-11T09:33:20.810Z,15.20
2019-05-11T09:35:53.437Z,15.40
2019-05-11T09:38:23.745Z,15.60
2019-05-11T09:40:54.345Z,15.50
2019-05-11T09:43:25.061Z,15.40
2019-05-11T09:45:58.047Z,15.30
2019-05-11T09:48:28.397Z,15.20
2019-05-11T09:50:59.103Z,14.80
2019-05-11T09:53:30.837Z,15.00
2019-05-11T09:56:01.437Z,15.00
2019-05-11T09:58:31.964Z,15.40
2019-05-11T10:03:32.419Z,16.80
2019-05-11T10:06:02.997Z,17.70
2019-05-11T10:08:33.515Z,18.30
2019-05-11T10:11:04.007Z,18.20
2019-05-11T10:13:34.543Z,17.50
2019-05-11T10:16:08.101Z,17.60
2019-05-11T10:18:38.556Z,18.20
2019-05-11T10:21:09.329Z,18.60
2019-05-11T10:23:42.557Z,17.90
2019-05-11T10:26:12.133Z,17.10
2019-05-11T10:28:42.753Z,16.30
2019-05-11T10:31:13.379Z,15.70
2019-05-11T10:33:44.093Z,15.80
2019-05-11T10:36:14.586Z,17.10
2019-05-11T10:38:45.293Z,18.40
2019-05-11T10:41:18.160Z,19.30
2019-05-11T10:43:49.176Z,19.30
2019-05-11T10:46:23.347Z,19.90
2019-05-11T10:48:52.177Z,19.50
2019-05-11T10:51:22.733Z,19.00
2019-05-11T10:53:53.350Z,18.20
2019-05-11T10:56:23.812Z,17.50
2019-05-11T10:58:54.339Z,16.70
2019-05-11T11:01:24.863Z,16.10
2019-05-11T11:03:55.420Z,15.80
2019-05-11T11:06:28.018Z,15.90
2019-05-11T11:08:58.139Z,16.60
2019-05-11T11:11:29.016Z,18.30
2019-05-11T11:13:59.575Z,19.60
2019-05-11T11:16:36.912Z,20.70
2019-05-11T11:19:02.330Z,20.10
2019-05-11T11:21:32.858Z,19.30
2019-05-11T11:24:03.489Z,18.70
2019-05-11T11:26:34.044Z,17.90
2019-05-11T11:29:04.613Z,18.00
2019-05-11T11:31:35.179Z,18.00
2019-05-11T11:34:08.006Z,17.70
2019-05-11T11:36:37.986Z,17.10
2019-05-11T11:39:08.891Z,16.40
2019-05-11T11:41:39.401Z,17.50
2019-05-11T11:44:09.891Z,18.50
2019-05-11T11:46:51.218Z,19.00
2019-05-11T11:49:12.695Z,18.80
2019-05-11T11:51:43.231Z,18.50
2019-05-11T11:54:14.677Z,18.20
2019-05-11T11:56:45.221Z,17.50
2019-05-11T11:59:17.686Z,17.50
2019-05-11T12:01:48.703Z,18.60
2019-05-11T12:04:19.455Z,19.70
2019-05-11T12:09:19.835Z,22.00
2019-05-11T12:11:50.354Z,22.30
2019-05-11T12:14:20.842Z,21.90
2019-05-11T12:17:03.969Z,21.00
2019-05-11T12:19:23.611Z,21.80
2019-05-11T12:24:24.203Z,24.00
2019-05-11T12:26:55.693Z,24.70
2019-05-11T12:29:28.191Z,25.60
2019-05-11T12:32:00.453Z,25.20
2019-05-11T12:34:30.962Z,24.10
2019-05-11T12:37:01.486Z,22.60
2019-05-11T12:39:32.025Z,21.10
2019-05-11T12:42:02.672Z,19.90
2019-05-11T12:44:33.175Z,18.70
2019-05-11T12:47:18.459Z,18.50
2019-05-11T12:49:36.346Z,19.40
2019-05-11T12:52:07.823Z,19.60
2019-05-11T12:54:38.549Z,19.70
2019-05-11T12:57:09.162Z,19.00
2019-05-11T12:59:39.655Z,18.40
2019-05-11T13:02:10.185Z,18.70
2019-05-11T13:04:40.673Z,19.30
2019-05-11T13:07:11.172Z,19.10
2019-05-11T13:09:41.671Z,18.80
2019-05-11T13:12:12.237Z,18.10
2019-05-11T13:14:42.775Z,18.60
2019-05-11T13:17:13.364Z,19.90
2019-05-11T13:19:44.922Z,21.20
2019-05-11T13:22:15.477Z,22.50
2019-05-11T13:24:48.062Z,23.40
2019-05-11T13:27:18.182Z,23.50
2019-05-11T13:29:48.805Z,22.60
2019-05-11T13:32:19.394Z,22.80
2019-05-11T13:34:49.884Z,23.00
2019-05-11T13:39:50.322Z,24.60
2019-05-11T13:42:23.214Z,25.20
2019-05-11T13:47:48.534Z,26.60
2019-05-11T13:50:07.762Z,27.40
2019-05-11T13:52:38.669Z,27.10
2019-05-11T13:55:09.734Z,25.30
2019-05-11T13:57:40.973Z,23.60
2019-05-11T14:00:11.597Z,22.70
2019-05-11T14:02:42.161Z,22.70
2019-05-11T14:05:12.895Z,22.70
2019-05-11T14:07:43.586Z,23.30
2019-05-11T14:10:14.232Z,23.20
2019-05-11T14:12:44.834Z,23.40
2019-05-11T14:15:18.114Z,22.80
2019-05-11T14:17:48.767Z,22.30
2019-05-11T14:20:20.589Z,21.90
2019-05-11T14:22:51.608Z,21.90
2019-05-11T14:25:22.211Z,22.30
2019-05-11T14:27:52.709Z,22.90
2019-05-11T14:30:23.312Z,23.80
2019-05-11T14:32:53.792Z,25.00
2019-05-11T14:35:24.435Z,25.60
2019-05-11T14:37:54.926Z,26.00
2019-05-11T14:40:25.457Z,25.10
2019-05-11T14:42:57.977Z,23.90
2019-05-11T14:45:28.884Z,22.30
2019-05-11T14:47:59.599Z,21.10
2019-05-11T14:50:30.098Z,20.50
2019-05-11T14:53:00.611Z,21.30
2019-05-11T14:55:31.254Z,22.00
2019-05-11T14:58:01.884Z,23.30
2019-05-11T15:00:32.487Z,23.60
2019-05-11T15:03:03.051Z,24.30
2019-05-11T15:05:33.667Z,25.00
2019-05-11T15:08:04.291Z,25.40
2019-05-11T15:10:34.953Z,25.10
2019-05-11T15:13:07.848Z,25.20
2019-05-11T15:15:39.441Z,24.40
2019-05-11T15:18:10.118Z,23.10
2019-05-11T15:20:40.636Z,21.40
2019-05-11T15:23:11.686Z,20.20
2019-05-11T15:25:42.313Z,19.20
2019-05-11T15:28:12.803Z,18.70
2019-05-11T15:30:43.284Z,18.50
2019-05-11T15:33:13.793Z,18.20
2019-05-11T15:35:44.285Z,17.50
2019-05-11T15:38:14.804Z,17.00
2019-05-11T15:40:45.343Z,16.80
2019-05-11T15:43:17.763Z,16.70
2019-05-11T15:45:48.697Z,16.50
2019-05-11T15:48:19.587Z,16.30
2019-05-11T15:50:50.170Z,16.20
2019-05-11T15:53:20.750Z,16.10
2019-05-11T15:55:51.242Z,16.00
2019-05-11T15:58:21.952Z,16.00
2019-05-11T16:00:52.899Z,15.90
2019-05-11T16:03:23.527Z,15.80
2019-05-11T16:05:53.992Z,15.90
2019-05-11T16:08:24.587Z,16.00
2019-05-11T16:10:55.202Z,16.00
2019-05-11T16:13:25.691Z,16.20
2019-05-11T16:15:57.758Z,16.40
2019-05-11T16:18:28.427Z,16.30
2019-05-11T16:20:58.957Z,16.20
2019-05-11T16:23:29.418Z,16.10
2019-05-11T16:26:00.053Z,16.10
2019-05-11T16:28:31.001Z,16.00
2019-05-11T16:31:01.707Z,16.00
2019-05-11T16:33:32.317Z,16.00
2019-05-11T16:36:02.942Z,16.00
2019-05-11T16:38:33.593Z,15.90
2019-05-11T16:41:04.132Z,15.90
2019-05-11T16:43:34.751Z,15.80
2019-05-11T16:46:05.357Z,15.50
2019-05-11T16:48:38.125Z,15.50
2019-05-11T16:51:08.618Z,15.50
2019-05-11T16:53:39.482Z,15.40
2019-05-11T16:56:09.990Z,15.40
2019-05-11T16:58:41.026Z,15.40
2019-05-11T17:01:11.856Z,15.40
2019-05-11T17:03:42.382Z,15.60
2019-05-11T17:06:12.941Z,15.70
2019-05-11T17:08:43.500Z,15.80
2019-05-11T17:11:14.019Z,15.90
2019-05-11T17:13:45.166Z,15.90
2019-05-11T17:16:17.750Z,15.80
2019-05-11T17:18:48.499Z,15.80
2019-05-11T17:21:19.361Z,15.80
2019-05-11T17:23:49.874Z,15.80
2019-05-11T17:26:20.613Z,15.70
2019-05-11T17:28:51.221Z,15.60
2019-05-11T17:31:21.758Z,15.60
2019-05-11T17:33:52.282Z,15.30
2019-05-11T17:36:22.788Z,15.30
2019-05-11T17:38:53.317Z,15.30
2019-05-11T17:41:23.895Z,15.20
2019-05-11T17:43:54.428Z,15.10
2019-05-11T17:48:54.710Z,14.90
2019-05-11T17:51:25.354Z,14.90
2019-05-11T17:53:55.844Z,14.80
2019-05-11T17:56:27.973Z,14.80
2019-05-11T17:58:58.559Z,14.70
2019-05-11T18:01:29.037Z,14.70
2019-05-11T18:03:59.522Z,14.70
2019-05-11T18:06:30.100Z,14.60
2019-05-11T18:09:00.697Z,14.60
2019-05-11T18:11:32.961Z,14.60
2019-05-11T18:14:03.482Z,14.60
2019-05-11T18:16:34.088Z,14.70
2019-05-11T18:19:04.655Z,14.70
2019-05-11T18:21:35.150Z,14.60
2019-05-11T18:24:05.656Z,14.60
2019-05-11T18:26:38.183Z,14.50
2019-05-11T18:29:08.505Z,14.50
2019-05-11T18:31:38.953Z,14.40
2019-05-11T18:34:09.479Z,14.40
2019-05-11T18:36:41.072Z,14.40
2019-05-11T18:39:11.548Z,14.30
2019-05-11T18:41:42.067Z,14.30
2019-05-11T18:44:12.627Z,14.20
2019-05-11T18:46:43.133Z,14.20
2019-05-11T18:49:13.951Z,14.20
2019-05-11T18:51:44.397Z,14.10
2019-05-11T18:54:14.955Z,14.00
2019-05-11T19:09:14.964Z,13.70
2019-05-11T19:11:45.556Z,13.70
2019-05-11T19:14:16.318Z,13.60
2019-05-11T19:16:49.003Z,13.60
2019-05-11T19:19:19.297Z,13.60
2019-05-11T19:21:49.921Z,13.60
2019-05-11T19:24:20.754Z,13.60
2019-05-11T19:26:51.569Z,13.60
2019-05-11T19:29:22.130Z,13.60
2019-05-11T19:31:52.699Z,13.30
2019-05-11T19:34:23.307Z,13.20
2019-05-11T19:36:54.005Z,13.00
2019-05-11T19:39:24.502Z,12.70
2019-05-11T19:41:55.096Z,12.50
2019-05-11T19:44:27.812Z,12.30
2019-05-11T19:46:58.207Z,12.20
2019-05-11T19:49:28.855Z,12.10
2019-05-11T19:52:00.419Z,12.00
2019-05-11T19:54:30.991Z,12.10
2019-05-11T19:57:01.586Z,12.00
2019-05-11T19:59:32.207Z,12.00
2019-05-11T20:02:02.901Z,12.00
2019-05-11T20:04:33.475Z,11.90
2019-05-11T20:07:04.159Z,12.00
2019-05-11T20:09:34.627Z,11.90
2019-05-11T20:12:05.298Z,11.90
2019-05-11T20:14:37.868Z,11.80
2019-05-11T20:17:08.915Z,11.80
2019-05-11T20:19:39.585Z,11.70
2019-05-11T20:22:10.195Z,11.70
2019-05-11T20:24:41.899Z,11.70
2019-05-11T20:27:12.495Z,11.60
2019-05-11T20:29:43.188Z,11.60
2019-05-11T20:32:13.747Z,11.60
2019-05-11T20:34:44.343Z,11.50
2019-05-11T20:37:15.094Z,11.40
2019-05-11T20:39:48.028Z,11.40
2019-05-11T20:42:18.244Z,11.30
2019-05-11T20:44:48.927Z,11.30
2019-05-11T20:47:19.549Z,11.30
2019-05-11T20:49:50.177Z,11.30
2019-05-11T20:52:20.806Z,11.30
2019-05-11T20:54:51.473Z,11.30
2019-05-11T20:57:22.049Z,11.30
2019-05-11T20:59:52.633Z,11.20
2019-05-11T21:02:23.476Z,11.20
2019-05-11T21:04:54.104Z,11.20
2019-05-11T21:07:24.655Z,11.10
2019-05-11T21:09:57.315Z,11.10
2019-05-11T21:12:28.947Z,11.10
2019-05-11T21:14:59.551Z,11.10
2019-05-11T21:17:30.101Z,11.00
2019-05-11T21:20:00.675Z,11.00
2019-05-11T21:22:31.242Z,10.90
2019-05-11T21:25:02.039Z,10.90
2019-05-11T21:27:32.737Z,10.90
2019-05-11T21:30:03.427Z,10.80
2019-05-11T21:32:34.007Z,10.80
2019-05-11T21:35:05.034Z,10.80
2019-05-11T21:37:38.395Z,10.80
2019-05-11T21:40:08.737Z,10.70
2019-05-11T21:42:39.500Z,10.70
2019-05-11T21:45:10.433Z,10.70
2019-05-11T21:47:40.904Z,10.70
2019-05-11T21:50:12.018Z,10.60
2019-05-11T21:52:42.634Z,10.50
2019-05-11T21:55:13.384Z,10.40
2019-05-11T21:57:44.023Z,10.30
2019-05-11T22:00:15.578Z,10.30
2019-05-11T22:02:48.611Z,10.20
2019-05-11T22:05:20.953Z,10.10
2019-05-11T22:07:51.690Z,10.10
2019-05-11T22:10:22.413Z,10.20
2019-05-11T22:12:54.046Z,10.10
2019-05-11T22:15:24.636Z,10.10
2019-05-11T22:17:55.284Z,10.00
2019-05-11T22:20:25.873Z,10.00
2019-05-11T22:22:58.190Z,10.00
2019-05-11T22:25:28.944Z,10.00
2019-05-11T22:27:59.640Z,9.90
2019-05-11T22:30:30.213Z,9.90
2019-05-11T22:33:00.773Z,9.80
2019-05-11T22:35:31.374Z,9.80
2019-05-11T22:38:02.199Z,9.70
2019-05-11T22:40:32.802Z,9.70
2019-05-11T22:43:03.433Z,9.60
2019-05-11T22:45:34.110Z,9.60
2019-05-11T22:48:07.966Z,9.50
2019-05-11T22:50:38.438Z,9.50
2019-05-11T22:53:11.570Z,9.50
2019-05-11T22:55:41.249Z,9.50
2019-05-11T22:58:11.870Z,9.50
2019-05-11T23:00:44.577Z,9.50
2019-05-11T23:03:15.286Z,9.40
2019-05-11T23:05:47.690Z,9.40
2019-05-11T23:08:18.358Z,9.30
2019-05-11T23:10:49.176Z,9.30
2019-05-11T23:13:20.160Z,9.30
2019-05-11T23:15:50.785Z,9.30
2019-05-11T23:18:21.641Z,9.30
2019-05-11T23:20:52.224Z,9.30
2019-05-11T23:23:23.053Z,9.30
2019-05-11T23:25:53.694Z,9.30
2019-05-11T23:28:24.395Z,9.20
2019-05-11T23:30:54.998Z,9.10
2019-05-11T23:33:27.943Z,9.10
2019-05-11T23:35:58.727Z,9.10
2019-05-11T23:38:29.462Z,9.10
2019-05-11T23:40:59.958Z,9.10
2019-05-11T23:43:30.510Z,9.10
2019-05-11T23:46:01.048Z,8.90
2019-05-11T23:48:31.496Z,8.80
2019-05-11T23:51:02.055Z,8.80
2019-05-11T23:53:32.705Z,8.80
2019-05-11T23:56:03.503Z,8.80
2019-05-11T23:58:34.102Z,8.70
